Time;durP1;ratioP1;P1;durP2;ratioP2;P2;SDS_P1;SDS_P2;PMS_P1;PMS_P2;Temp;Humidity;BMP_temperature;BMP_pressure;BME280_temperature;BME280_humidity;BME280_pressure;Samples;Min_cycle;Max_cycle;Signal;HPM_P1;HPM_P2
2022/11/05 00:17:08;;;;;;;6.22;3.35;;;;;;;;;;4970205;28;20072;-84
2022/11/05 00:19:36;;;;;;;6.28;3.33;;;;;;;;;;4953698;28;20026;-84
2022/11/05 00:27:32;;;;;;;5.80;3.55;;;;;;;;;;4977348;28;20181;-85
2022/11/05 00:29:58;;;;;;;6.13;3.75;;;;;;;;;;4937561;28;20025;-86
2022/11/05 00:32:25;;;;;;;4.53;2.67;;;;;;;;;;4958359;28;20088;-86
2022/11/05 00:34:52;;;;;;;6.28;3.63;;;;;;;;;;4945294;28;20437;-83
2022/11/05 00:37:24;;;;;;;5.45;3.08;;;;;;;;;;4942932;28;20038;-87
2022/11/05 00:39:52;;;;;;;3.85;2.50;;;;;;;;;;4956660;28;20022;-87
2022/11/05 00:45:16;;;;;;;4.53;2.97;;;;;;;;;;4964164;28;20578;-87
2022/11/05 00:50:30;;;;;;;5.07;2.80;;;;;;;;;;4987294;28;20112;-83
2022/11/05 00:53:00;;;;;;;4.30;2.70;;;;;;;;;;4945490;28;20411;-85
2022/11/05 00:55:28;;;;;;;5.47;3.00;;;;;;;;;;4976312;28;20027;-85
2022/11/05 00:57:54;;;;;;;5.18;3.00;;;;;;;;;;4945071;28;20112;-84
2022/11/05 01:00:20;;;;;;;5.05;3.00;;;;;;;;;;4937840;28;20130;-85
2022/11/05 01:02:45;;;;;;;3.90;2.60;;;;;;;;;;4943851;28;20030;-84
2022/11/05 01:05:11;;;;;;;5.70;2.88;;;;;;;;;;4956479;28;20403;-85
2022/11/05 01:07:39;;;;;;;4.88;3.20;;;;;;;;;;4951281;28;20042;-84
2022/11/05 01:10:04;;;;;;;4.57;2.72;;;;;;;;;;4952904;28;20045;-85
2022/11/05 01:12:30;;;;;;;4.32;2.58;;;;;;;;;;4959534;28;20663;-85
2022/11/05 01:14:56;;;;;;;3.95;2.17;;;;;;;;;;4953080;28;20026;-84
2022/11/05 01:17:22;;;;;;;4.85;2.75;;;;;;;;;;4957465;28;20097;-86
2022/11/05 01:19:49;;;;;;;5.45;3.10;;;;;;;;;;4944584;28;20121;-88
2022/11/05 01:22:17;;;;;;;4.63;3.15;;;;;;;;;;4943064;28;20365;-85
2022/11/05 01:24:43;;;;;;;4.03;2.42;;;;;;;;;;4952096;28;20029;-83
2022/11/05 01:27:10;;;;;;;5.80;2.75;;;;;;;;;;4958532;28;20469;-87
2022/11/05 01:29:35;;;;;;;4.00;2.67;;;;;;;;;;4960572;28;20232;-83
2022/11/05 01:32:01;;;;;;;4.68;2.88;;;;;;;;;;4958498;28;20044;-84
2022/11/05 01:34:27;;;;;;;4.43;2.90;;;;;;;;;;4951843;28;20064;-83
2022/11/05 01:36:53;;;;;;;4.72;2.38;;;;;;;;;;4943099;28;20121;-83
2022/11/05 01:39:19;;;;;;;4.30;3.00;;;;;;;;;;4953534;28;20491;-83
2022/11/05 01:41:45;;;;;;;3.83;2.47;;;;;;;;;;4956622;28;20038;-86
2022/11/05 01:44:49;;;;;;;5.47;2.95;;;;;;;;;;4954943;28;20080;-85
2022/11/05 01:47:33;;;;;;;4.28;2.67;;;;;;;;;;4968947;28;20030;-88
2022/11/05 01:50:00;;;;;;;4.85;2.35;;;;;;;;;;4972057;28;20030;-84
2022/11/05 01:52:28;;;;;;;5.05;2.40;;;;;;;;;;4946058;28;20044;-84
2022/11/05 01:54:54;;;;;;;5.10;2.45;;;;;;;;;;4945929;28;20029;-84
2022/11/05 01:57:20;;;;;;;3.47;2.10;;;;;;;;;;4945307;28;20049;-84
2022/11/05 01:59:49;;;;;;;4.03;2.22;;;;;;;;;;4961775;28;20026;-83
2022/11/05 02:02:14;;;;;;;5.97;2.58;;;;;;;;;;4962106;28;20125;-84
2022/11/05 02:04:45;;;;;;;4.22;2.35;;;;;;;;;;4961558;28;20032;-84
2022/11/05 02:07:12;;;;;;;4.43;2.08;;;;;;;;;;4946029;28;20026;-84
2022/11/05 02:09:45;;;;;;;4.82;2.20;;;;;;;;;;4945669;28;20060;-83
2022/11/05 02:12:11;;;;;;;3.10;1.85;;;;;;;;;;4961496;28;20477;-83
2022/11/05 02:14:38;;;;;;;3.75;2.08;;;;;;;;;;4945729;28;20030;-83
2022/11/05 02:17:09;;;;;;;4.43;2.47;;;;;;;;;;4949272;28;20026;-85
2022/11/05 02:19:37;;;;;;;3.97;2.40;;;;;;;;;;4997142;28;20034;-85
2022/11/05 02:22:40;;;;;;;3.70;2.30;;;;;;;;;;4980893;28;20273;-85
2022/11/05 02:25:09;;;;;;;3.75;2.10;;;;;;;;;;4980765;28;20026;-85
2022/11/05 02:28:13;;;;;;;4.55;2.15;;;;;;;;;;4980723;28;20507;-85
2022/11/05 02:30:57;;;;;;;3.25;2.20;;;;;;;;;;4966658;28;20093;-85
2022/11/05 02:33:45;;;;;;;5.10;2.70;;;;;;;;;;4980564;28;20038;-85
2022/11/05 02:36:19;;;;;;;3.97;2.35;;;;;;;;;;4980592;28;20030;-85
2022/11/05 02:38:51;;;;;;;5.40;2.45;;;;;;;;;;4996982;28;20496;-84
2022/11/05 02:41:29;;;;;;;3.72;2.30;;;;;;;;;;4960692;28;20058;-85
2022/11/05 02:44:03;;;;;;;4.60;2.67;;;;;;;;;;4961391;28;20023;-84
2022/11/05 02:46:49;;;;;;;3.45;2.10;;;;;;;;;;4961141;28;20030;-85
2022/11/05 02:49:45;;;;;;;3.38;2.22;;;;;;;;;;4961437;28;20031;-85
2022/11/05 02:52:49;;;;;;;3.50;2.42;;;;;;;;;;4963014;28;20396;-85
2022/11/05 02:55:24;;;;;;;3.85;2.33;;;;;;;;;;4948439;28;20042;-85
2022/11/05 02:57:50;;;;;;;4.70;2.35;;;;;;;;;;4960470;28;20439;-85
2022/11/05 03:00:38;;;;;;;3.83;2.45;;;;;;;;;;4976683;28;20041;-85
2022/11/05 03:03:03;;;;;;;2.97;1.90;;;;;;;;;;4960954;28;20038;-85
2022/11/05 03:05:44;;;;;;;3.30;2.20;;;;;;;;;;4960607;28;20038;-85
2022/11/05 03:08:15;;;;;;;4.90;1.92;;;;;;;;;;4946720;28;20114;-85
2022/11/05 03:10:42;;;;;;;4.13;2.00;;;;;;;;;;4960623;28;20034;-85
2022/11/05 03:13:17;;;;;;;4.13;2.15;;;;;;;;;;4960723;28;20033;-85
2022/11/05 03:16:10;;;;;;;3.47;1.98;;;;;;;;;;4961067;28;20065;-84
2022/11/05 03:18:46;;;;;;;3.92;2.10;;;;;;;;;;4963350;28;20550;-85
2022/11/05 03:21:28;;;;;;;3.47;2.05;;;;;;;;;;4961804;28;20388;-84
2022/11/05 03:23:55;;;;;;;3.33;2.17;;;;;;;;;;4961238;28;20034;-84
2022/11/05 03:26:28;;;;;;;5.20;2.35;;;;;;;;;;4959976;28;20270;-84
2022/11/05 03:28:55;;;;;;;3.22;2.00;;;;;;;;;;4960577;28;20026;-85
2022/11/05 03:31:21;;;;;;;4.07;2.13;;;;;;;;;;4960275;28;20122;-84
2022/11/05 03:33:48;;;;;;;3.53;1.90;;;;;;;;;;4960123;28;20129;-84
2022/11/05 03:36:18;;;;;;;3.55;1.80;;;;;;;;;;4944560;28;20464;-84
2022/11/05 03:38:45;;;;;;;3.95;2.30;;;;;;;;;;4960569;28;20081;-85
2022/11/05 03:41:11;;;;;;;4.47;2.33;;;;;;;;;;4946197;28;20021;-85
2022/11/05 03:43:40;;;;;;;5.72;2.30;;;;;;;;;;4963543;28;20041;-84
2022/11/05 03:46:08;;;;;;;3.92;1.90;;;;;;;;;;4947589;28;20488;-85
2022/11/05 03:48:37;;;;;;;3.22;2.00;;;;;;;;;;4958465;28;20022;-85
2022/11/05 03:51:24;;;;;;;3.17;2.08;;;;;;;;;;4943952;28;20080;-85
2022/11/05 03:53:55;;;;;;;4.47;2.28;;;;;;;;;;4959836;28;20033;-85
2022/11/05 03:56:32;;;;;;;3.97;2.05;;;;;;;;;;4928760;28;20037;-85
2022/11/05 03:58:58;;;;;;;3.67;1.88;;;;;;;;;;4928441;28;20097;-85
2022/11/05 04:01:24;;;;;;;3.95;2.08;;;;;;;;;;4959808;28;20564;-85
2022/11/05 04:03:49;;;;;;;2.72;1.70;;;;;;;;;;4959925;28;20081;-84
2022/11/05 04:14:29;;;;;;;4.55;2.08;;;;;;;;;;4962055;28;20058;-85
2022/11/05 04:17:05;;;;;;;3.63;2.20;;;;;;;;;;4959651;28;20596;-85
2022/11/05 04:25:12;;;;;;;3.00;1.73;;;;;;;;;;4975440;28;20030;-84
2022/11/05 04:27:38;;;;;;;3.70;1.90;;;;;;;;;;4943725;28;20036;-84
2022/11/05 04:30:19;;;;;;;4.00;1.83;;;;;;;;;;4959750;28;20105;-84
2022/11/05 04:33:06;;;;;;;2.92;1.80;;;;;;;;;;4947140;28;20041;-84
2022/11/05 04:35:38;;;;;;;3.13;1.90;;;;;;;;;;4975138;28;20481;-84
2022/11/05 04:38:05;;;;;;;3.00;1.77;;;;;;;;;;4974424;28;20099;-84
2022/11/05 04:40:31;;;;;;;3.88;2.03;;;;;;;;;;4955695;28;20049;-84
2022/11/05 04:42:57;;;;;;;3.15;1.73;;;;;;;;;;4974525;28;20532;-84
2022/11/05 04:45:23;;;;;;;3.65;1.77;;;;;;;;;;4959121;28;20034;-84
2022/11/05 04:47:48;;;;;;;3.67;2.10;;;;;;;;;;4959382;28;20023;-84
2022/11/05 04:50:15;;;;;;;3.30;1.63;;;;;;;;;;4961542;28;20045;-84
2022/11/05 04:52:40;;;;;;;4.28;1.70;;;;;;;;;;4978142;28;20026;-84
2022/11/05 04:55:06;;;;;;;2.85;1.77;;;;;;;;;;4946134;28;20044;-84
2022/11/05 04:57:33;;;;;;;3.58;2.05;;;;;;;;;;4962511;28;20369;-85
2022/11/05 04:59:58;;;;;;;3.80;2.00;;;;;;;;;;4962020;28;20495;-84
2022/11/05 05:02:23;;;;;;;2.78;1.80;;;;;;;;;;4946152;28;20065;-84
2022/11/05 05:04:49;;;;;;;3.97;1.75;;;;;;;;;;4946110;28;20044;-84
2022/11/05 05:07:14;;;;;;;4.13;2.30;;;;;;;;;;4946022;28;20420;-84
2022/11/05 05:09:40;;;;;;;2.60;1.77;;;;;;;;;;4945840;28;20089;-84
2022/11/05 05:12:06;;;;;;;3.05;1.55;;;;;;;;;;4962399;28;20064;-84
2022/11/05 05:14:32;;;;;;;4.10;1.50;;;;;;;;;;4962385;28;20472;-84
2022/11/05 05:16:58;;;;;;;2.80;1.70;;;;;;;;;;4962480;28;20033;-84
2022/11/05 05:19:24;;;;;;;3.65;1.85;;;;;;;;;;4961978;28;20037;-84
2022/11/05 05:21:49;;;;;;;3.30;1.70;;;;;;;;;;4961926;28;20029;-84
2022/11/05 05:24:17;;;;;;;2.88;1.60;;;;;;;;;;4961971;28;20037;-84
2022/11/05 05:26:44;;;;;;;4.32;1.88;;;;;;;;;;4962792;28;20049;-83
2022/11/05 05:29:10;;;;;;;4.15;1.63;;;;;;;;;;4961996;28;20080;-84
2022/11/05 05:31:35;;;;;;;3.00;1.52;;;;;;;;;;4945964;28;20026;-84
2022/11/05 05:34:01;;;;;;;3.00;1.50;;;;;;;;;;4961590;28;20045;-83
2022/11/05 05:36:29;;;;;;;2.67;1.60;;;;;;;;;;4961547;28;20037;-84
2022/11/05 05:38:55;;;;;;;3.50;1.90;;;;;;;;;;4974500;28;20053;-83
2022/11/05 05:41:22;;;;;;;4.40;1.85;;;;;;;;;;4958870;28;20042;-84
2022/11/05 05:43:47;;;;;;;3.92;1.80;;;;;;;;;;4958955;28;20084;-84
2022/11/05 05:46:13;;;;;;;3.08;1.60;;;;;;;;;;4943021;28;20030;-84
2022/11/05 05:48:39;;;;;;;3.58;1.92;;;;;;;;;;4958991;28;20022;-84
2022/11/05 05:51:09;;;;;;;2.40;1.35;;;;;;;;;;4945834;28;20078;-84
2022/11/05 05:53:34;;;;;;;2.47;1.40;;;;;;;;;;4962733;28;20034;-84
2022/11/05 05:56:01;;;;;;;2.50;1.58;;;;;;;;;;4930530;28;20029;-84
2022/11/05 05:58:33;;;;;;;2.35;1.63;;;;;;;;;;4946495;28;20045;-84
2022/11/05 06:01:00;;;;;;;2.58;1.42;;;;;;;;;;4962915;28;20031;-84
2022/11/05 06:03:25;;;;;;;3.00;1.50;;;;;;;;;;4961686;28;20039;-83
2022/11/05 06:05:52;;;;;;;4.43;1.65;;;;;;;;;;4946037;28;20461;-83
2022/11/05 06:08:17;;;;;;;3.63;2.17;;;;;;;;;;4946431;28;20022;-84
2022/11/05 06:10:49;;;;;;;3.42;1.75;;;;;;;;;;4965128;28;20096;-84
2022/11/05 06:13:16;;;;;;;;;;;;;;;;;;4965375;28;20080;-84
2022/11/05 06:15:41;;;;;;;3.25;1.67;;;;;;;;;;4981035;28;19916;-83
2022/11/05 06:18:07;;;;;;;2.70;1.58;;;;;;;;;;4949066;28;20042;-83
2022/11/05 06:20:33;;;;;;;3.17;1.30;;;;;;;;;;4964500;28;20427;-83
2022/11/05 06:22:59;;;;;;;3.50;1.55;;;;;;;;;;4965301;28;20030;-84
2022/11/05 06:25:24;;;;;;;2.33;1.42;;;;;;;;;;4964902;28;20045;-84
2022/11/05 06:27:50;;;;;;;2.08;1.10;;;;;;;;;;4961959;28;20089;-83
2022/11/05 06:30:16;;;;;;;2.40;1.50;;;;;;;;;;4964328;28;20041;-84
2022/11/05 06:32:42;;;;;;;2.63;1.45;;;;;;;;;;4948303;28;20053;-83
2022/11/05 06:35:09;;;;;;;3.25;1.40;;;;;;;;;;4961459;28;20058;-84
2022/11/05 06:37:35;;;;;;;2.75;1.60;;;;;;;;;;4945429;28;20065;-84
2022/11/05 06:40:01;;;;;;;3.95;1.50;;;;;;;;;;4954200;28;20034;-83
2022/11/05 06:42:28;;;;;;;4.18;1.80;;;;;;;;;;4961228;28;20069;-84
2022/11/05 06:44:54;;;;;;;2.67;1.75;;;;;;;;;;4945315;28;20032;-84
2022/11/05 06:47:19;;;;;;;3.22;1.65;;;;;;;;;;4960783;28;20041;-84
2022/11/05 06:49:46;;;;;;;4.93;2.00;;;;;;;;;;4956144;28;20038;-84
2022/11/05 06:52:12;;;;;;;2.88;1.40;;;;;;;;;;4961661;28;20049;-84
2022/11/05 06:54:37;;;;;;;2.25;1.30;;;;;;;;;;4960791;28;20027;-82
2022/11/05 06:57:08;;;;;;;2.20;1.40;;;;;;;;;;4944772;28;20038;-84
2022/11/05 06:59:35;;;;;;;2.20;1.17;;;;;;;;;;4960730;28;20026;-84
2022/11/05 07:02:01;;;;;;;2.90;1.30;;;;;;;;;;4959517;28;20081;-87
2022/11/05 07:04:26;;;;;;;2.00;1.38;;;;;;;;;;4956602;28;20400;-83
2022/11/05 07:06:55;;;;;;;2.80;1.30;;;;;;;;;;4960596;28;20050;-85
2022/11/05 07:09:20;;;;;;;2.35;1.05;;;;;;;;;;4962649;28;20026;-86
2022/11/05 07:11:46;;;;;;;3.25;1.80;;;;;;;;;;4964058;28;20091;-86
2022/11/05 07:14:13;;;;;;;2.75;1.50;;;;;;;;;;4947975;28;20083;-84
2022/11/05 07:16:39;;;;;;;2.97;2.03;;;;;;;;;;4947966;28;20121;-85
2022/11/05 07:19:05;;;;;;;2.92;1.40;;;;;;;;;;4948166;28;20029;-84
2022/11/05 07:21:30;;;;;;;2.63;1.38;;;;;;;;;;4948385;28;20103;-85
2022/11/05 07:23:57;;;;;;;2.88;1.25;;;;;;;;;;4948023;28;20046;-84
2022/11/05 07:26:23;;;;;;;2.70;1.65;;;;;;;;;;4948225;28;20038;-87
2022/11/05 07:28:49;;;;;;;3.38;1.30;;;;;;;;;;4960585;28;20022;-87
2022/11/05 07:31:14;;;;;;;3.50;1.33;;;;;;;;;;4944787;28;20084;-86
2022/11/05 07:33:40;;;;;;;3.25;1.45;;;;;;;;;;4945095;28;20041;-86
2022/11/05 07:36:06;;;;;;;6.13;1.30;;;;;;;;;;4961282;28;20070;-86
2022/11/05 07:38:31;;;;;;;3.00;1.35;;;;;;;;;;4960664;28;20704;-86
2022/11/05 07:40:58;;;;;;;2.92;1.38;;;;;;;;;;4960851;28;20034;-85
2022/11/05 07:43:25;;;;;;;4.15;2.38;;;;;;;;;;4960578;28;20062;-86
2022/11/05 07:45:52;;;;;;;7.70;2.65;;;;;;;;;;4960487;28;20030;-86
2022/11/05 07:48:19;;;;;;;5.50;2.35;;;;;;;;;;4944772;28;20142;-86
2022/11/05 07:50:45;;;;;;;5.70;2.60;;;;;;;;;;4944483;28;20080;-85
2022/11/05 07:53:12;;;;;;;7.30;2.92;;;;;;;;;;4944447;28;20045;-86
2022/11/05 07:55:42;;;;;;;7.28;2.47;;;;;;;;;;4960233;28;20448;-85
2022/11/05 07:58:08;;;;;;;7.68;2.85;;;;;;;;;;4943871;28;20049;-85
2022/11/05 08:00:34;;;;;;;7.25;2.67;;;;;;;;;;4960335;28;20477;-86
2022/11/05 08:03:02;;;;;;;5.35;2.60;;;;;;;;;;4928133;28;20041;-85
2022/11/05 08:05:28;;;;;;;5.55;2.40;;;;;;;;;;4943814;28;20038;-84
2022/11/05 08:07:55;;;;;;;6.57;2.38;;;;;;;;;;4943727;28;20092;-85
2022/11/05 08:10:22;;;;;;;11.07;10.07;;;;;;;;;;4934836;28;20041;-85
2022/11/05 08:12:48;;;;;;;15.38;11.52;;;;;;;;;;4943805;28;20026;-85
2022/11/05 08:15:15;;;;;;;27.05;21.95;;;;;;;;;;4959252;28;20531;-84
2022/11/05 08:17:41;;;;;;;212.55;163.52;;;;;;;;;;4963863;28;20022;-83
2022/11/05 08:20:08;;;;;;;184.02;145.88;;;;;;;;;;4955853;28;20034;-84
2022/11/05 08:22:34;;;;;;;165.52;134.93;;;;;;;;;;4943727;28;20026;-85
2022/11/05 08:24:59;;;;;;;193.95;147.32;;;;;;;;;;4940944;28;20037;-84
2022/11/05 08:27:24;;;;;;;205.50;157.15;;;;;;;;;;4945680;28;20026;-85
2022/11/05 08:29:50;;;;;;;202.45;169.13;;;;;;;;;;4944230;28;20093;-84
2022/11/05 08:32:15;;;;;;;201.98;164.32;;;;;;;;;;4953780;28;20038;-84
2022/11/05 08:34:42;;;;;;;179.48;140.43;;;;;;;;;;4944299;28;20384;-84
2022/11/05 08:37:09;;;;;;;171.68;133.77;;;;;;;;;;4938024;28;20026;-84
2022/11/05 08:39:34;;;;;;;147.27;122.35;;;;;;;;;;4946597;28;20049;-84
2022/11/05 08:42:00;;;;;;;140.65;114.43;;;;;;;;;;4942984;28;20519;-85
2022/11/05 08:44:26;;;;;;;138.43;112.45;;;;;;;;;;4955110;28;20034;-85
2022/11/05 08:46:52;;;;;;;145.13;113.45;;;;;;;;;;4952154;28;20405;-85
2022/11/05 08:49:17;;;;;;;136.90;105.45;;;;;;;;;;4943411;28;20049;-82
2022/11/05 08:51:43;;;;;;;122.43;102.20;;;;;;;;;;4947824;28;20030;-82
2022/11/05 08:54:09;;;;;;;132.32;104.03;;;;;;;;;;4953683;28;20033;-83
2022/11/05 08:56:35;;;;;;;131.23;103.68;;;;;;;;;;4964942;28;20419;-82
2022/11/05 08:59:00;;;;;;;127.60;101.97;;;;;;;;;;4942141;28;20038;-83
2022/11/05 09:01:26;;;;;;;123.88;101.38;;;;;;;;;;4948155;28;20929;-83
2022/11/05 09:03:51;;;;;;;123.72;94.47;;;;;;;;;;4980264;28;20050;-84
2022/11/05 09:06:19;;;;;;;122.18;93.65;;;;;;;;;;4927703;28;20034;-82
2022/11/05 09:08:51;;;;;;;122.25;90.47;;;;;;;;;;4927178;28;20041;-83
2022/11/05 09:11:17;;;;;;;104.43;80.22;;;;;;;;;;4942141;28;20496;-81
2022/11/05 09:13:43;;;;;;;107.38;80.97;;;;;;;;;;4958237;28;20038;-80
2022/11/05 09:16:18;;;;;;;105.40;83.22;;;;;;;;;;4959162;28;20033;-82
2022/11/05 09:18:43;;;;;;;106.88;81.88;;;;;;;;;;4958486;28;20483;-83
2022/11/05 09:21:10;;;;;;;101.55;74.60;;;;;;;;;;4958476;28;20066;-83
2022/11/05 09:23:35;;;;;;;99.25;75.15;;;;;;;;;;4958881;28;20054;-83
2022/11/05 09:26:01;;;;;;;96.13;72.60;;;;;;;;;;4946736;28;20676;-81
2022/11/05 09:28:27;;;;;;;90.03;72.38;;;;;;;;;;4968300;28;20050;-80
2022/11/05 09:30:52;;;;;;;89.90;66.55;;;;;;;;;;4981619;28;20037;-81
2022/11/05 09:33:20;;;;;;;85.95;64.82;;;;;;;;;;4965149;28;20038;-80
2022/11/05 09:35:45;;;;;;;83.18;63.33;;;;;;;;;;4965341;28;20089;-80
2022/11/05 09:38:11;;;;;;;77.65;55.25;;;;;;;;;;4981640;28;20399;-80
2022/11/05 09:40:41;;;;;;;83.10;58.45;;;;;;;;;;4965740;28;20555;-81
2022/11/05 09:43:08;;;;;;;75.10;55.22;;;;;;;;;;4965652;28;20073;-81
2022/11/05 09:45:34;;;;;;;70.30;52.28;;;;;;;;;;4965831;28;20503;-82
2022/11/05 09:48:20;;;;;;;62.67;46.95;;;;;;;;;;4964430;28;20034;-81
2022/11/05 09:50:45;;;;;;;66.20;49.75;;;;;;;;;;4980863;28;20037;-81
2022/11/05 09:53:16;;;;;;;68.50;50.60;;;;;;;;;;4965234;28;20079;-81
2022/11/05 09:55:43;;;;;;;65.95;48.17;;;;;;;;;;4949289;28;20026;-81
2022/11/05 09:58:24;;;;;;;62.70;46.65;;;;;;;;;;4949479;28;20025;-81
2022/11/05 10:00:51;;;;;;;57.45;46.55;;;;;;;;;;4980668;28;20480;-81
2022/11/05 10:03:20;;;;;;;59.85;47.53;;;;;;;;;;4965663;28;20081;-81
2022/11/05 10:05:45;;;;;;;54.72;43.47;;;;;;;;;;4949487;28;20503;-81
2022/11/05 10:08:20;;;;;;;61.53;45.35;;;;;;;;;;4965083;28;20034;-81
2022/11/05 10:11:00;;;;;;;56.35;45.53;;;;;;;;;;4948578;28;20076;-81
2022/11/05 10:13:49;;;;;;;49.42;41.40;;;;;;;;;;4981168;28;20488;-81
2022/11/05 10:16:32;;;;;;;54.03;42.25;;;;;;;;;;4949544;28;20061;-81
2022/11/05 10:19:15;;;;;;;53.67;40.60;;;;;;;;;;4980974;28;20080;-81
2022/11/05 10:21:40;;;;;;;53.72;40.25;;;;;;;;;;4948413;28;20026;-81
2022/11/05 10:24:15;;;;;;;53.70;40.03;;;;;;;;;;4962553;28;20065;-84
2022/11/05 10:26:40;;;;;;;51.47;37.83;;;;;;;;;;4947886;28;20021;-83
2022/11/05 10:29:06;;;;;;;48.13;36.72;;;;;;;;;;4980161;28;20037;-82
2022/11/05 10:31:33;;;;;;;47.33;36.92;;;;;;;;;;4948541;28;20435;-83
2022/11/05 10:34:00;;;;;;;47.03;37.83;;;;;;;;;;4948679;28;20048;-82
2022/11/05 10:36:28;;;;;;;47.65;35.42;;;;;;;;;;4963522;28;20034;-84
2022/11/05 10:38:56;;;;;;;44.35;34.15;;;;;;;;;;4976645;28;20114;-84
2022/11/05 10:41:31;;;;;;;43.53;33.85;;;;;;;;;;4929040;28;20041;-82
2022/11/05 10:44:27;;;;;;;44.22;34.95;;;;;;;;;;4960877;28;20041;-83
2022/11/05 10:47:30;;;;;;;40.67;32.00;;;;;;;;;;4976989;28;20045;-83
2022/11/05 10:50:10;;;;;;;40.25;32.15;;;;;;;;;;4960943;28;20025;-83
2022/11/05 10:52:38;;;;;;;42.40;31.95;;;;;;;;;;4946332;28;20070;-83
2022/11/05 10:55:09;;;;;;;42.95;32.45;;;;;;;;;;4928487;28;20069;-84
2022/11/05 10:57:36;;;;;;;36.90;30.08;;;;;;;;;;4929482;28;20544;-83
2022/11/05 11:00:17;;;;;;;37.85;29.80;;;;;;;;;;4944834;28;20100;-83
2022/11/05 11:02:46;;;;;;;38.42;31.23;;;;;;;;;;4960306;28;20133;-84
2022/11/05 11:05:38;;;;;;;35.97;27.42;;;;;;;;;;4928607;28;20042;-83
2022/11/05 11:08:20;;;;;;;33.80;27.05;;;;;;;;;;4962755;28;20050;-83
2022/11/05 11:10:50;;;;;;;38.50;27.95;;;;;;;;;;4929172;28;20436;-85
2022/11/05 11:13:27;;;;;;;40.40;27.88;;;;;;;;;;4928373;28;20030;-84
2022/11/05 11:15:54;;;;;;;39.00;28.35;;;;;;;;;;4935108;28;20038;-81
2022/11/05 11:18:29;;;;;;;38.85;26.92;;;;;;;;;;4953003;28;20026;-82
2022/11/05 11:21:05;;;;;;;36.30;26.27;;;;;;;;;;4947530;28;20026;-82
2022/11/05 11:23:35;;;;;;;35.10;25.75;;;;;;;;;;4944091;28;20128;-83
2022/11/05 11:26:02;;;;;;;33.97;24.45;;;;;;;;;;4979552;28;20087;-82
2022/11/05 11:28:42;;;;;;;38.95;24.83;;;;;;;;;;4963527;28;20064;-82
2022/11/05 11:31:15;;;;;;;35.05;25.77;;;;;;;;;;4960060;28;20042;-82
2022/11/05 11:33:43;;;;;;;30.85;23.17;;;;;;;;;;4960006;28;20408;-83
2022/11/05 11:36:09;;;;;;;33.75;23.08;;;;;;;;;;4979929;28;20542;-83
2022/11/05 11:38:36;;;;;;;36.60;24.25;;;;;;;;;;4963012;28;20026;-84
2022/11/05 11:41:23;;;;;;;36.63;22.80;;;;;;;;;;4962920;28;20060;-83
2022/11/05 11:43:49;;;;;;;31.55;22.58;;;;;;;;;;4979126;28;20098;-83
2022/11/05 11:46:16;;;;;;;27.17;21.77;;;;;;;;;;4962771;28;20037;-84
2022/11/05 11:48:44;;;;;;;29.67;22.38;;;;;;;;;;4947586;28;20092;-83
2022/11/05 11:51:16;;;;;;;30.58;22.00;;;;;;;;;;4963245;28;20121;-83
2022/11/05 11:53:42;;;;;;;31.63;20.15;;;;;;;;;;4994873;28;20030;-84
2022/11/05 11:56:14;;;;;;;29.23;21.88;;;;;;;;;;4962876;28;20029;-85
2022/11/05 11:58:45;;;;;;;26.98;20.65;;;;;;;;;;4979066;28;20041;-83
2022/11/05 12:01:29;;;;;;;28.70;19.85;;;;;;;;;;4946685;28;20125;-84
2022/11/05 12:04:16;;;;;;;28.25;20.50;;;;;;;;;;4994880;28;20042;-82
2022/11/05 12:07:19;;;;;;;29.45;19.58;;;;;;;;;;4978801;28;20025;-82
2022/11/05 12:09:51;;;;;;;30.98;19.70;;;;;;;;;;4995194;28;20041;-83
2022/11/05 12:12:17;;;;;;;;;;;;;;;;;;4979257;28;20061;-83
2022/11/05 12:14:42;;;;;;;24.60;16.83;;;;;;;;;;4979139;28;20665;-84
2022/11/05 12:17:35;;;;;;;23.05;18.00;;;;;;;;;;5011022;28;20506;-83
2022/11/05 12:20:11;;;;;;;24.38;17.30;;;;;;;;;;4975628;28;20054;-82
2022/11/05 12:22:47;;;;;;;20.77;15.75;;;;;;;;;;4959114;28;20239;-83
2022/11/05 12:25:22;;;;;;;24.70;15.00;;;;;;;;;;4943508;28;20145;-83
2022/11/05 12:28:28;;;;;;;19.83;15.88;;;;;;;;;;4976139;28;20038;-83
2022/11/05 12:31:21;;;;;;;19.45;15.50;;;;;;;;;;4962235;28;20124;-83
2022/11/05 12:34:19;;;;;;;22.52;14.77;;;;;;;;;;4975137;28;20046;-82
2022/11/05 12:37:08;;;;;;;20.40;14.30;;;;;;;;;;4959968;28;20049;-79
2022/11/05 12:40:06;;;;;;;20.33;13.70;;;;;;;;;;4989585;28;20484;-79
2022/11/05 12:42:56;;;;;;;19.63;14.00;;;;;;;;;;4992816;28;20038;-78
2022/11/05 12:45:28;;;;;;;20.58;13.00;;;;;;;;;;4962514;28;20050;-79
2022/11/05 12:48:08;;;;;;;18.33;12.50;;;;;;;;;;4985932;28;20550;-79
2022/11/05 12:50:44;;;;;;;17.33;11.88;;;;;;;;;;4991551;28;20117;-78
2022/11/05 12:53:17;;;;;;;18.13;12.80;;;;;;;;;;4955180;28;20033;-79
2022/11/05 12:55:43;;;;;;;18.63;11.20;;;;;;;;;;4975744;28;20038;-79
2022/11/05 12:58:28;;;;;;;20.35;11.43;;;;;;;;;;4935543;28;20032;-79
2022/11/05 13:01:02;;;;;;;16.48;12.40;;;;;;;;;;4956751;28;20536;-79
2022/11/05 13:03:44;;;;;;;17.35;10.90;;;;;;;;;;4962689;28;20085;-79
2022/11/05 13:06:15;;;;;;;16.02;10.82;;;;;;;;;;4975520;28;20074;-79
2022/11/05 13:08:58;;;;;;;14.82;11.13;;;;;;;;;;4943761;28;20034;-80
2022/11/05 13:11:32;;;;;;;18.30;10.32;;;;;;;;;;4956687;28;20100;-81
2022/11/05 13:14:16;;;;;;;15.63;9.85;;;;;;;;;;4958984;28;20038;-81
2022/11/05 13:16:48;;;;;;;16.25;8.55;;;;;;;;;;4974589;28;20110;-80
2022/11/05 13:19:25;;;;;;;13.07;8.23;;;;;;;;;;4945096;28;20030;-81
2022/11/05 13:21:59;;;;;;;12.50;8.73;;;;;;;;;;4977090;28;20033;-80
2022/11/05 13:24:31;;;;;;;12.02;7.18;;;;;;;;;;4945893;28;20022;-80
2022/11/05 13:27:17;;;;;;;11.25;7.03;;;;;;;;;;4958493;28;20088;-80
2022/11/05 13:29:55;;;;;;;13.93;7.43;;;;;;;;;;4958977;28;20526;-80
2022/11/05 13:32:30;;;;;;;13.77;6.85;;;;;;;;;;4979376;28;20218;-81
2022/11/05 13:34:56;;;;;;;15.73;6.97;;;;;;;;;;4960569;28;20045;-80
2022/11/05 13:40:12;;;;;;;11.60;5.88;;;;;;;;;;4982318;28;20112;-80
2022/11/05 13:42:53;;;;;;;10.70;5.88;;;;;;;;;;4961970;28;20046;-80
2022/11/05 13:45:21;;;;;;;12.07;5.28;;;;;;;;;;4960215;28;20369;-80
2022/11/05 13:48:06;;;;;;;13.40;5.43;;;;;;;;;;4992750;28;20076;-80
2022/11/05 13:50:50;;;;;;;7.93;4.53;;;;;;;;;;4992993;28;20034;-80
2022/11/05 13:53:49;;;;;;;6.57;3.83;;;;;;;;;;4974043;28;20030;-80
2022/11/05 13:56:43;;;;;;;9.00;3.80;;;;;;;;;;4987625;28;20038;-81
2022/11/05 13:59:17;;;;;;;7.20;3.85;;;;;;;;;;4976420;28;20029;-81
2022/11/05 14:01:57;;;;;;;7.75;3.63;;;;;;;;;;4973653;28;20497;-80
2022/11/05 14:04:33;;;;;;;9.07;3.88;;;;;;;;;;4960782;28;20050;-81
2022/11/05 14:07:06;;;;;;;6.20;4.45;;;;;;;;;;4956332;28;20026;-80
2022/11/05 14:09:33;;;;;;;8.18;3.50;;;;;;;;;;4941844;28;20026;-80
2022/11/05 14:11:59;;;;;;;12.30;3.22;;;;;;;;;;4937443;28;20113;-80
2022/11/05 14:14:29;;;;;;;13.02;3.85;;;;;;;;;;4961479;28;20447;-80
2022/11/05 14:17:07;;;;;;;31.92;9.10;;;;;;;;;;4960486;28;20426;-80
2022/11/05 14:19:54;;;;;;;74.68;40.95;;;;;;;;;;5000283;28;20450;-80
2022/11/05 14:22:32;;;;;;;268.88;154.00;;;;;;;;;;4972140;28;20030;-82
2022/11/05 14:25:18;;;;;;;244.05;146.43;;;;;;;;;;4979872;28;20045;-81
2022/11/05 14:27:48;;;;;;;204.95;129.35;;;;;;;;;;4974972;28;20113;-82
2022/11/05 14:30:42;;;;;;;195.50;123.88;;;;;;;;;;4963311;28;20038;-83
2022/11/05 14:33:16;;;;;;;203.68;141.48;;;;;;;;;;4983776;28;20034;-82
2022/11/05 14:35:42;;;;;;;206.10;139.27;;;;;;;;;;4986978;28;20222;-82
2022/11/05 14:38:37;;;;;;;182.60;126.72;;;;;;;;;;4954996;28;20510;-83
2022/11/05 14:41:02;;;;;;;220.80;145.15;;;;;;;;;;4960960;28;20116;-82
2022/11/05 14:43:30;;;;;;;227.48;157.60;;;;;;;;;;4955037;28;20037;-81
2022/11/05 14:46:04;;;;;;;254.60;180.10;;;;;;;;;;4961492;28;20049;-81
2022/11/05 14:48:46;;;;;;;235.93;169.60;;;;;;;;;;4969215;28;20036;-80
2022/11/05 14:51:39;;;;;;;235.95;164.13;;;;;;;;;;4993757;28;20045;-81
2022/11/05 14:54:04;;;;;;;;;;;;;;;;;;4968172;28;20137;-80
2022/11/05 14:56:40;;;;;;;198.95;141.38;;;;;;;;;;4969167;28;19996;-81
2022/11/05 14:59:30;;;;;;;191.00;135.98;;;;;;;;;;4979342;28;20030;-82
2022/11/05 15:02:16;;;;;;;178.80;126.47;;;;;;;;;;4966144;28;20088;-81
2022/11/05 15:04:44;;;;;;;170.38;121.20;;;;;;;;;;4944946;28;20032;-81
2022/11/05 15:07:09;;;;;;;157.27;115.57;;;;;;;;;;4963553;28;20409;-81
2022/11/05 15:09:54;;;;;;;162.13;117.32;;;;;;;;;;4990556;28;20115;-81
2022/11/05 15:12:28;;;;;;;152.35;109.38;;;;;;;;;;4960183;28;20029;-81
2022/11/05 15:15:01;;;;;;;148.93;108.63;;;;;;;;;;4928846;28;20038;-81
2022/11/05 15:17:33;;;;;;;144.63;102.40;;;;;;;;;;4928322;28;20062;-81
2022/11/05 15:20:17;;;;;;;137.63;103.88;;;;;;;;;;4944624;28;20116;-82
2022/11/05 15:22:46;;;;;;;136.65;99.13;;;;;;;;;;4944360;28;20034;-81
2022/11/05 15:25:20;;;;;;;133.70;98.60;;;;;;;;;;4944594;28;20037;-82
2022/11/05 15:27:52;;;;;;;126.57;93.80;;;;;;;;;;4929899;28;20081;-80
2022/11/05 15:30:20;;;;;;;130.32;94.40;;;;;;;;;;4963332;28;20089;-80
2022/11/05 15:32:45;;;;;;;122.07;93.15;;;;;;;;;;4963893;28;20036;-81
2022/11/05 15:35:25;;;;;;;116.57;87.90;;;;;;;;;;4947467;28;20037;-81
2022/11/05 15:37:51;;;;;;;113.60;84.45;;;;;;;;;;4975895;28;20100;-78